sensor_id;sensor_type;location;lat;lon;timestamp;P1;durP1;ratioP1;P2;durP2;ratioP2
39098;SDS011;24844;52.380;7.018;2023-04-30T00:00:44;12.02;;;7.25;;
39098;SDS011;24844;52.380;7.018;2023-04-30T00:03:09;10.07;;;7.30;;
39098;SDS011;24844;52.380;7.018;2023-04-30T00:05:35;7.85;;;6.60;;
39098;SDS011;24844;52.380;7.018;2023-04-30T00:08:02;9.13;;;6.72;;
39098;SDS011;24844;52.380;7.018;2023-04-30T00:10:29;8.55;;;6.88;;
39098;SDS011;24844;52.380;7.018;2023-04-30T00:12:54;8.77;;;6.55;;
39098;SDS011;24844;52.380;7.018;2023-04-30T00:15:21;9.20;;;7.43;;
39098;SDS011;24844;52.380;7.018;2023-04-30T00:17:46;12.55;;;7.70;;
39098;SDS011;24844;52.380;7.018;2023-04-30T00:20:12;8.18;;;7.30;;
39098;SDS011;24844;52.380;7.018;2023-04-30T00:22:38;10.10;;;7.22;;
39098;SDS011;24844;52.380;7.018;2023-04-30T00:25:03;10.23;;;7.45;;
39098;SDS011;24844;52.380;7.018;2023-04-30T00:27:29;9.82;;;7.80;;
39098;SDS011;24844;52.380;7.018;2023-04-30T00:29:56;12.07;;;7.80;;
39098;SDS011;24844;52.380;7.018;2023-04-30T00:32:22;9.77;;;7.35;;
39098;SDS011;24844;52.380;7.018;2023-04-30T00:34:47;9.35;;;7.28;;
39098;SDS011;24844;52.380;7.018;2023-04-30T00:37:13;9.88;;;7.22;;
39098;SDS011;24844;52.380;7.018;2023-04-30T00:39:38;8.95;;;7.95;;
39098;SDS011;24844;52.380;7.018;2023-04-30T00:42:04;10.30;;;7.90;;
39098;SDS011;24844;52.380;7.018;2023-04-30T00:44:30;9.63;;;7.32;;
39098;SDS011;24844;52.380;7.018;2023-04-30T00:46:55;9.32;;;8.00;;
39098;SDS011;24844;52.380;7.018;2023-04-30T00:49:21;12.13;;;8.10;;
39098;SDS011;24844;52.380;7.018;2023-04-30T00:51:47;9.98;;;7.57;;
39098;SDS011;24844;52.380;7.018;2023-04-30T00:54:13;10.20;;;7.28;;
39098;SDS011;24844;52.380;7.018;2023-04-30T00:56:39;11.02;;;8.85;;
39098;SDS011;24844;52.380;7.018;2023-04-30T00:59:05;10.98;;;7.88;;
39098;SDS011;24844;52.380;7.018;2023-04-30T01:01:31;12.93;;;8.10;;
39098;SDS011;24844;52.380;7.018;2023-04-30T01:03:57;10.30;;;8.10;;
39098;SDS011;24844;52.380;7.018;2023-04-30T01:06:23;10.10;;;8.38;;
39098;SDS011;24844;52.380;7.018;2023-04-30T01:08:50;13.32;;;7.75;;
39098;SDS011;24844;52.380;7.018;2023-04-30T01:16:50;11.88;;;8.32;;
39098;SDS011;24844;52.380;7.018;2023-04-30T01:19:43;13.25;;;8.32;;
39098;SDS011;24844;52.380;7.018;2023-04-30T01:25:10;9.70;;;8.23;;
39098;SDS011;24844;52.380;7.018;2023-04-30T01:30:28;12.63;;;9.23;;
39098;SDS011;24844;52.380;7.018;2023-04-30T01:32:55;12.55;;;9.00;;
39098;SDS011;24844;52.380;7.018;2023-04-30T01:35:22;12.63;;;8.73;;
39098;SDS011;24844;52.380;7.018;2023-04-30T01:38:27;12.20;;;9.20;;
39098;SDS011;24844;52.380;7.018;2023-04-30T01:41:26;11.68;;;8.40;;
39098;SDS011;24844;52.380;7.018;2023-04-30T01:47:02;12.80;;;9.35;;
39098;SDS011;24844;52.380;7.018;2023-04-30T01:49:37;14.32;;;8.90;;
39098;SDS011;24844;52.380;7.018;2023-04-30T01:52:22;10.63;;;8.02;;
39098;SDS011;24844;52.380;7.018;2023-04-30T01:54:59;16.58;;;9.75;;
39098;SDS011;24844;52.380;7.018;2023-04-30T01:57:32;13.48;;;10.15;;
39098;SDS011;24844;52.380;7.018;2023-04-30T02:00:03;12.57;;;9.93;;
39098;SDS011;24844;52.380;7.018;2023-04-30T02:02:30;14.82;;;10.20;;
39098;SDS011;24844;52.380;7.018;2023-04-30T02:04:55;12.80;;;10.30;;
39098;SDS011;24844;52.380;7.018;2023-04-30T02:07:27;12.55;;;9.52;;
39098;SDS011;24844;52.380;7.018;2023-04-30T02:10:02;14.38;;;9.90;;
39098;SDS011;24844;52.380;7.018;2023-04-30T02:12:28;19.10;;;9.88;;
39098;SDS011;24844;52.380;7.018;2023-04-30T02:14:54;13.57;;;9.85;;
39098;SDS011;24844;52.380;7.018;2023-04-30T02:17:19;14.20;;;9.20;;
39098;SDS011;24844;52.380;7.018;2023-04-30T02:19:45;16.23;;;9.80;;
39098;SDS011;24844;52.380;7.018;2023-04-30T02:22:11;12.52;;;9.57;;
39098;SDS011;24844;52.380;7.018;2023-04-30T02:24:36;16.35;;;10.23;;
39098;SDS011;24844;52.380;7.018;2023-04-30T02:27:02;12.20;;;9.73;;
39098;SDS011;24844;52.380;7.018;2023-04-30T02:29:28;15.13;;;10.00;;
39098;SDS011;24844;52.380;7.018;2023-04-30T02:31:55;13.77;;;10.10;;
39098;SDS011;24844;52.380;7.018;2023-04-30T02:34:22;17.63;;;10.13;;
39098;SDS011;24844;52.380;7.018;2023-04-30T02:36:48;14.85;;;10.18;;
39098;SDS011;24844;52.380;7.018;2023-04-30T02:39:14;15.20;;;11.00;;
39098;SDS011;24844;52.380;7.018;2023-04-30T02:41:39;19.45;;;10.50;;
39098;SDS011;24844;52.380;7.018;2023-04-30T02:44:05;15.60;;;11.18;;
39098;SDS011;24844;52.380;7.018;2023-04-30T02:46:31;13.38;;;10.23;;
39098;SDS011;24844;52.380;7.018;2023-04-30T02:48:56;14.15;;;11.02;;
39098;SDS011;24844;52.380;7.018;2023-04-30T02:51:22;13.02;;;10.20;;
39098;SDS011;24844;52.380;7.018;2023-04-30T02:53:47;17.67;;;11.13;;
39098;SDS011;24844;52.380;7.018;2023-04-30T02:56:13;16.02;;;10.05;;
39098;SDS011;24844;52.380;7.018;2023-04-30T02:58:39;14.80;;;10.63;;
39098;SDS011;24844;52.380;7.018;2023-04-30T03:01:05;13.70;;;9.85;;
39098;SDS011;24844;52.380;7.018;2023-04-30T03:03:30;14.05;;;10.25;;
39098;SDS011;24844;52.380;7.018;2023-04-30T03:05:57;17.73;;;11.20;;
39098;SDS011;24844;52.380;7.018;2023-04-30T03:08:23;14.27;;;9.70;;
39098;SDS011;24844;52.380;7.018;2023-04-30T03:10:49;16.50;;;10.68;;
39098;SDS011;24844;52.380;7.018;2023-04-30T03:13:15;13.05;;;10.00;;
39098;SDS011;24844;52.380;7.018;2023-04-30T03:15:40;16.55;;;10.50;;
39098;SDS011;24844;52.380;7.018;2023-04-30T03:18:06;14.57;;;10.38;;
39098;SDS011;24844;52.380;7.018;2023-04-30T03:20:31;17.65;;;10.38;;
39098;SDS011;24844;52.380;7.018;2023-04-30T03:22:57;17.10;;;11.73;;
39098;SDS011;24844;52.380;7.018;2023-04-30T03:25:23;15.27;;;10.50;;
39098;SDS011;24844;52.380;7.018;2023-04-30T03:27:48;13.88;;;9.55;;
39098;SDS011;24844;52.380;7.018;2023-04-30T03:30:14;10.93;;;8.95;;
39098;SDS011;24844;52.380;7.018;2023-04-30T03:32:40;14.85;;;10.45;;
39098;SDS011;24844;52.380;7.018;2023-04-30T03:35:05;17.70;;;10.90;;
39098;SDS011;24844;52.380;7.018;2023-04-30T03:37:32;12.38;;;9.65;;
39098;SDS011;24844;52.380;7.018;2023-04-30T03:39:57;13.65;;;10.05;;
39098;SDS011;24844;52.380;7.018;2023-04-30T03:42:23;11.88;;;9.43;;
39098;SDS011;24844;52.380;7.018;2023-04-30T03:44:48;12.15;;;9.73;;
39098;SDS011;24844;52.380;7.018;2023-04-30T03:47:14;11.82;;;9.48;;
39098;SDS011;24844;52.380;7.018;2023-04-30T03:49:40;13.68;;;9.60;;
39098;SDS011;24844;52.380;7.018;2023-04-30T03:52:05;12.95;;;9.55;;
39098;SDS011;24844;52.380;7.018;2023-04-30T03:54:31;11.48;;;9.27;;
39098;SDS011;24844;52.380;7.018;2023-04-30T03:56:58;13.98;;;9.65;;
39098;SDS011;24844;52.380;7.018;2023-04-30T03:59:24;12.77;;;9.75;;
39098;SDS011;24844;52.380;7.018;2023-04-30T04:01:50;15.02;;;9.38;;
39098;SDS011;24844;52.380;7.018;2023-04-30T04:04:15;15.05;;;10.55;;
39098;SDS011;24844;52.380;7.018;2023-04-30T04:06:41;23.90;;;15.20;;
39098;SDS011;24844;52.380;7.018;2023-04-30T04:09:07;9.75;;;7.90;;
39098;SDS011;24844;52.380;7.018;2023-04-30T04:11:33;14.60;;;10.73;;
39098;SDS011;24844;52.380;7.018;2023-04-30T04:13:58;14.75;;;10.73;;
39098;SDS011;24844;52.380;7.018;2023-04-30T04:16:24;12.93;;;9.45;;
39098;SDS011;24844;52.380;7.018;2023-04-30T04:18:50;12.82;;;9.07;;
39098;SDS011;24844;52.380;7.018;2023-04-30T04:21:16;9.63;;;7.93;;
39098;SDS011;24844;52.380;7.018;2023-04-30T04:23:42;15.52;;;9.85;;
39098;SDS011;24844;52.380;7.018;2023-04-30T04:26:07;12.70;;;8.65;;
39098;SDS011;24844;52.380;7.018;2023-04-30T04:28:34;9.35;;;7.72;;
39098;SDS011;24844;52.380;7.018;2023-04-30T04:31:00;11.55;;;7.72;;
39098;SDS011;24844;52.380;7.018;2023-04-30T04:33:27;7.68;;;6.57;;
39098;SDS011;24844;52.380;7.018;2023-04-30T04:35:53;7.28;;;6.03;;
39098;SDS011;24844;52.380;7.018;2023-04-30T04:38:18;6.20;;;5.57;;
39098;SDS011;24844;52.380;7.018;2023-04-30T04:40:51;6.80;;;5.30;;
39098;SDS011;24844;52.380;7.018;2023-04-30T04:43:18;6.05;;;5.10;;
39098;SDS011;24844;52.380;7.018;2023-04-30T04:45:44;5.15;;;4.65;;
39098;SDS011;24844;52.380;7.018;2023-04-30T04:48:11;9.75;;;4.90;;
39098;SDS011;24844;52.380;7.018;2023-04-30T04:50:36;5.13;;;4.57;;
39098;SDS011;24844;52.380;7.018;2023-04-30T04:53:02;5.88;;;4.10;;
39098;SDS011;24844;52.380;7.018;2023-04-30T04:55:27;5.53;;;4.65;;
39098;SDS011;24844;52.380;7.018;2023-04-30T04:57:53;7.55;;;4.70;;
39098;SDS011;24844;52.380;7.018;2023-04-30T05:00:18;8.15;;;5.00;;
39098;SDS011;24844;52.380;7.018;2023-04-30T05:02:46;5.97;;;4.55;;
39098;SDS011;24844;52.380;7.018;2023-04-30T05:05:12;8.55;;;4.22;;
39098;SDS011;24844;52.380;7.018;2023-04-30T05:07:37;5.85;;;4.60;;
39098;SDS011;24844;52.380;7.018;2023-04-30T05:10:03;6.35;;;4.28;;
39098;SDS011;24844;52.380;7.018;2023-04-30T05:12:29;6.10;;;4.93;;
39098;SDS011;24844;52.380;7.018;2023-04-30T05:14:55;7.55;;;5.10;;
39098;SDS011;24844;52.380;7.018;2023-04-30T05:17:21;6.32;;;4.85;;
39098;SDS011;24844;52.380;7.018;2023-04-30T05:19:46;9.10;;;5.20;;
39098;SDS011;24844;52.380;7.018;2023-04-30T05:22:14;6.40;;;4.88;;
39098;SDS011;24844;52.380;7.018;2023-04-30T05:24:40;128.18;;;12.25;;
39098;SDS011;24844;52.380;7.018;2023-04-30T05:27:06;8.13;;;5.63;;
39098;SDS011;24844;52.380;7.018;2023-04-30T05:29:31;9.32;;;6.50;;
39098;SDS011;24844;52.380;7.018;2023-04-30T05:31:57;11.93;;;6.35;;
39098;SDS011;24844;52.380;7.018;2023-04-30T05:34:23;14.77;;;7.65;;
39098;SDS011;24844;52.380;7.018;2023-04-30T05:36:48;21.13;;;8.30;;
39098;SDS011;24844;52.380;7.018;2023-04-30T05:39:14;13.82;;;7.82;;
39098;SDS011;24844;52.380;7.018;2023-04-30T05:41:40;20.55;;;8.75;;
39098;SDS011;24844;52.380;7.018;2023-04-30T05:44:05;12.25;;;8.90;;
39098;SDS011;24844;52.380;7.018;2023-04-30T05:46:31;16.75;;;10.45;;
39098;SDS011;24844;52.380;7.018;2023-04-30T05:48:57;12.75;;;9.55;;
39098;SDS011;24844;52.380;7.018;2023-04-30T05:51:22;15.57;;;9.68;;
39098;SDS011;24844;52.380;7.018;2023-04-30T05:53:48;48.05;;;11.32;;
39098;SDS011;24844;52.380;7.018;2023-04-30T05:56:13;13.90;;;10.38;;
39098;SDS011;24844;52.380;7.018;2023-04-30T05:58:39;18.98;;;11.02;;
39098;SDS011;24844;52.380;7.018;2023-04-30T06:01:04;17.42;;;10.98;;
39098;SDS011;24844;52.380;7.018;2023-04-30T06:03:30;22.05;;;11.52;;
39098;SDS011;24844;52.380;7.018;2023-04-30T06:05:56;25.50;;;11.82;;
39098;SDS011;24844;52.380;7.018;2023-04-30T06:08:22;28.00;;;13.65;;
39098;SDS011;24844;52.380;7.018;2023-04-30T06:10:47;29.55;;;14.95;;
39098;SDS011;24844;52.380;7.018;2023-04-30T06:13:14;30.00;;;14.38;;
39098;SDS011;24844;52.380;7.018;2023-04-30T06:15:40;19.83;;;12.95;;
39098;SDS011;24844;52.380;7.018;2023-04-30T06:18:06;20.80;;;13.90;;
39098;SDS011;24844;52.380;7.018;2023-04-30T06:20:31;24.55;;;12.55;;
39098;SDS011;24844;52.380;7.018;2023-04-30T06:22:57;15.65;;;9.85;;
39098;SDS011;24844;52.380;7.018;2023-04-30T06:25:24;19.75;;;9.95;;
39098;SDS011;24844;52.380;7.018;2023-04-30T06:27:50;18.38;;;8.77;;
39098;SDS011;24844;52.380;7.018;2023-04-30T06:30:18;17.20;;;9.30;;
39098;SDS011;24844;52.380;7.018;2023-04-30T06:32:43;56.75;;;9.35;;
39098;SDS011;24844;52.380;7.018;2023-04-30T06:35:09;19.83;;;8.05;;
39098;SDS011;24844;52.380;7.018;2023-04-30T06:37:35;23.20;;;8.88;;
39098;SDS011;24844;52.380;7.018;2023-04-30T06:40:04;14.10;;;7.25;;
39098;SDS011;24844;52.380;7.018;2023-04-30T06:42:31;18.52;;;6.25;;
39098;SDS011;24844;52.380;7.018;2023-04-30T06:44:59;13.23;;;6.60;;
39098;SDS011;24844;52.380;7.018;2023-04-30T06:47:26;12.87;;;6.07;;
39098;SDS011;24844;52.380;7.018;2023-04-30T06:49:52;21.58;;;6.72;;
39098;SDS011;24844;52.380;7.018;2023-04-30T06:52:17;13.35;;;5.38;;
39098;SDS011;24844;52.380;7.018;2023-04-30T06:54:43;14.65;;;6.32;;
39098;SDS011;24844;52.380;7.018;2023-04-30T06:57:08;13.63;;;5.97;;
39098;SDS011;24844;52.380;7.018;2023-04-30T06:59:34;15.90;;;6.63;;
39098;SDS011;24844;52.380;7.018;2023-04-30T07:01:59;14.23;;;5.68;;
39098;SDS011;24844;52.380;7.018;2023-04-30T07:04:25;10.93;;;5.25;;
39098;SDS011;24844;52.380;7.018;2023-04-30T07:06:51;16.23;;;5.88;;
39098;SDS011;24844;52.380;7.018;2023-04-30T07:09:17;12.02;;;5.68;;
39098;SDS011;24844;52.380;7.018;2023-04-30T07:11:43;16.48;;;5.68;;
39098;SDS011;24844;52.380;7.018;2023-04-30T07:14:09;15.52;;;5.15;;
39098;SDS011;24844;52.380;7.018;2023-04-30T07:16:35;15.38;;;5.53;;
39098;SDS011;24844;52.380;7.018;2023-04-30T07:19:00;10.38;;;4.90;;
39098;SDS011;24844;52.380;7.018;2023-04-30T07:21:26;8.98;;;4.30;;
39098;SDS011;24844;52.380;7.018;2023-04-30T07:23:52;10.05;;;4.10;;
39098;SDS011;24844;52.380;7.018;2023-04-30T07:26:17;10.95;;;4.18;;
39098;SDS011;24844;52.380;7.018;2023-04-30T07:28:46;11.20;;;3.40;;
39098;SDS011;24844;52.380;7.018;2023-04-30T07:31:12;9.95;;;3.13;;
39098;SDS011;24844;52.380;7.018;2023-04-30T07:33:38;8.60;;;3.20;;
39098;SDS011;24844;52.380;7.018;2023-04-30T07:36:03;7.82;;;3.10;;
39098;SDS011;24844;52.380;7.018;2023-04-30T07:38:29;8.05;;;3.05;;
39098;SDS011;24844;52.380;7.018;2023-04-30T07:40:55;7.47;;;2.60;;
39098;SDS011;24844;52.380;7.018;2023-04-30T07:43:21;9.38;;;3.08;;
39098;SDS011;24844;52.380;7.018;2023-04-30T07:45:47;8.05;;;2.40;;
39098;SDS011;24844;52.380;7.018;2023-04-30T07:48:13;5.95;;;2.47;;
39098;SDS011;24844;52.380;7.018;2023-04-30T07:50:40;9.95;;;3.22;;
39098;SDS011;24844;52.380;7.018;2023-04-30T07:53:05;6.57;;;2.58;;
39098;SDS011;24844;52.380;7.018;2023-04-30T07:55:33;6.40;;;2.10;;
39098;SDS011;24844;52.380;7.018;2023-04-30T07:57:59;7.32;;;2.35;;
39098;SDS011;24844;52.380;7.018;2023-04-30T08:00:26;8.48;;;2.80;;
39098;SDS011;24844;52.380;7.018;2023-04-30T08:02:53;7.78;;;2.60;;
39098;SDS011;24844;52.380;7.018;2023-04-30T08:05:19;7.72;;;2.40;;
39098;SDS011;24844;52.380;7.018;2023-04-30T08:07:45;6.15;;;2.20;;
39098;SDS011;24844;52.380;7.018;2023-04-30T08:10:10;8.48;;;2.47;;
39098;SDS011;24844;52.380;7.018;2023-04-30T08:12:36;8.63;;;2.42;;
39098;SDS011;24844;52.380;7.018;2023-04-30T08:15:02;7.00;;;2.35;;
39098;SDS011;24844;52.380;7.018;2023-04-30T08:17:29;11.80;;;2.85;;
39098;SDS011;24844;52.380;7.018;2023-04-30T08:19:55;7.10;;;2.60;;
39098;SDS011;24844;52.380;7.018;2023-04-30T08:22:21;6.82;;;2.45;;
39098;SDS011;24844;52.380;7.018;2023-04-30T08:24:47;5.10;;;2.20;;
39098;SDS011;24844;52.380;7.018;2023-04-30T08:27:13;3.83;;;1.98;;
39098;SDS011;24844;52.380;7.018;2023-04-30T08:29:39;8.25;;;2.30;;
39098;SDS011;24844;52.380;7.018;2023-04-30T08:32:04;8.77;;;2.97;;
39098;SDS011;24844;52.380;7.018;2023-04-30T08:34:30;7.45;;;2.38;;
39098;SDS011;24844;52.380;7.018;2023-04-30T08:36:56;9.25;;;2.65;;
39098;SDS011;24844;52.380;7.018;2023-04-30T08:39:23;7.55;;;2.38;;
39098;SDS011;24844;52.380;7.018;2023-04-30T08:41:55;8.57;;;2.60;;
39098;SDS011;24844;52.380;7.018;2023-04-30T08:44:22;3.85;;;1.75;;
39098;SDS011;24844;52.380;7.018;2023-04-30T08:46:49;5.90;;;2.38;;
39098;SDS011;24844;52.380;7.018;2023-04-30T08:49:19;9.63;;;2.70;;
39098;SDS011;24844;52.380;7.018;2023-04-30T08:51:48;8.60;;;2.30;;
39098;SDS011;24844;52.380;7.018;2023-04-30T08:54:14;10.20;;;2.33;;
39098;SDS011;24844;52.380;7.018;2023-04-30T08:56:43;6.50;;;2.03;;
39098;SDS011;24844;52.380;7.018;2023-04-30T08:59:10;6.28;;;2.53;;
39098;SDS011;24844;52.380;7.018;2023-04-30T09:01:36;4.13;;;1.73;;
39098;SDS011;24844;52.380;7.018;2023-04-30T09:04:02;6.68;;;2.08;;
39098;SDS011;24844;52.380;7.018;2023-04-30T09:06:28;7.63;;;2.60;;
39098;SDS011;24844;52.380;7.018;2023-04-30T09:08:55;5.45;;;2.35;;
39098;SDS011;24844;52.380;7.018;2023-04-30T09:11:25;7.97;;;2.50;;
39098;SDS011;24844;52.380;7.018;2023-04-30T09:13:53;6.53;;;2.30;;
39098;SDS011;24844;52.380;7.018;2023-04-30T09:16:21;6.38;;;2.08;;
39098;SDS011;24844;52.380;7.018;2023-04-30T09:18:48;7.30;;;2.25;;
39098;SDS011;24844;52.380;7.018;2023-04-30T09:21:14;7.03;;;2.28;;
39098;SDS011;24844;52.380;7.018;2023-04-30T09:24:01;5.18;;;2.15;;
39098;SDS011;24844;52.380;7.018;2023-04-30T09:26:32;6.03;;;2.30;;
39098;SDS011;24844;52.380;7.018;2023-04-30T09:29:02;7.38;;;2.33;;
39098;SDS011;24844;52.380;7.018;2023-04-30T09:31:35;7.20;;;2.30;;
39098;SDS011;24844;52.380;7.018;2023-04-30T09:34:02;9.07;;;2.40;;
39098;SDS011;24844;52.380;7.018;2023-04-30T09:36:29;6.82;;;2.35;;
39098;SDS011;24844;52.380;7.018;2023-04-30T09:38:55;7.10;;;2.42;;
39098;SDS011;24844;52.380;7.018;2023-04-30T09:41:29;7.80;;;2.65;;
39098;SDS011;24844;52.380;7.018;2023-04-30T09:43:55;7.95;;;2.28;;
39098;SDS011;24844;52.380;7.018;2023-04-30T09:46:28;4.70;;;2.13;;
39098;SDS011;24844;52.380;7.018;2023-04-30T09:48:58;5.60;;;2.03;;
39098;SDS011;24844;52.380;7.018;2023-04-30T09:51:25;7.55;;;2.65;;
39098;SDS011;24844;52.380;7.018;2023-04-30T09:53:52;4.40;;;2.35;;
39098;SDS011;24844;52.380;7.018;2023-04-30T09:56:27;5.95;;;2.30;;
39098;SDS011;24844;52.380;7.018;2023-04-30T09:58:55;6.55;;;2.38;;
39098;SDS011;24844;52.380;7.018;2023-04-30T10:01:22;6.05;;;2.17;;
39098;SDS011;24844;52.380;7.018;2023-04-30T10:03:51;5.78;;;2.40;;
39098;SDS011;24844;52.380;7.018;2023-04-30T10:06:17;4.10;;;1.63;;
39098;SDS011;24844;52.380;7.018;2023-04-30T10:08:52;5.93;;;1.80;;
39098;SDS011;24844;52.380;7.018;2023-04-30T10:11:21;6.03;;;2.15;;
39098;SDS011;24844;52.380;7.018;2023-04-30T10:13:58;8.52;;;2.95;;
39098;SDS011;24844;52.380;7.018;2023-04-30T10:18:58;8.25;;;2.13;;
39098;SDS011;24844;52.380;7.018;2023-04-30T10:21:30;8.65;;;2.63;;
39098;SDS011;24844;52.380;7.018;2023-04-30T10:23:56;7.28;;;2.20;;
39098;SDS011;24844;52.380;7.018;2023-04-30T10:26:23;5.53;;;2.03;;
39098;SDS011;24844;52.380;7.018;2023-04-30T10:28:49;4.07;;;1.42;;
39098;SDS011;24844;52.380;7.018;2023-04-30T10:31:15;3.80;;;1.77;;
39098;SDS011;24844;52.380;7.018;2023-04-30T10:36:48;5.97;;;2.35;;
39098;SDS011;24844;52.380;7.018;2023-04-30T10:39:21;4.68;;;1.85;;
39098;SDS011;24844;52.380;7.018;2023-04-30T10:41:48;6.50;;;1.75;;
39098;SDS011;24844;52.380;7.018;2023-04-30T10:44:14;7.32;;;2.20;;
39098;SDS011;24844;52.380;7.018;2023-04-30T10:46:45;4.80;;;1.80;;
39098;SDS011;24844;52.380;7.018;2023-04-30T10:49:11;5.20;;;1.88;;
39098;SDS011;24844;52.380;7.018;2023-04-30T10:51:48;6.68;;;2.42;;
39098;SDS011;24844;52.380;7.018;2023-04-30T10:54:26;6.10;;;1.80;;
39098;SDS011;24844;52.380;7.018;2023-04-30T10:56:53;4.65;;;1.73;;
39098;SDS011;24844;52.380;7.018;2023-04-30T10:59:34;5.22;;;2.20;;
39098;SDS011;24844;52.380;7.018;2023-04-30T11:02:01;5.70;;;2.08;;
39098;SDS011;24844;52.380;7.018;2023-04-30T11:04:27;7.07;;;1.75;;
39098;SDS011;24844;52.380;7.018;2023-04-30T11:09:23;6.50;;;2.25;;
39098;SDS011;24844;52.380;7.018;2023-04-30T11:12:03;7.57;;;2.47;;
39098;SDS011;24844;52.380;7.018;2023-04-30T11:14:35;4.28;;;1.70;;
39098;SDS011;24844;52.380;7.018;2023-04-30T11:17:08;8.68;;;1.95;;
39098;SDS011;24844;52.380;7.018;2023-04-30T11:19:45;7.03;;;2.20;;
39098;SDS011;24844;52.380;7.018;2023-04-30T11:22:19;6.03;;;1.88;;
39098;SDS011;24844;52.380;7.018;2023-04-30T11:25:01;5.20;;;2.15;;
39098;SDS011;24844;52.380;7.018;2023-04-30T11:27:33;6.82;;;2.50;;
39098;SDS011;24844;52.380;7.018;2023-04-30T11:30:00;4.68;;;1.75;;
39098;SDS011;24844;52.380;7.018;2023-04-30T11:32:33;8.32;;;2.20;;
39098;SDS011;24844;52.380;7.018;2023-04-30T11:35:00;7.07;;;1.88;;
39098;SDS011;24844;52.380;7.018;2023-04-30T11:37:34;6.35;;;2.00;;
39098;SDS011;24844;52.380;7.018;2023-04-30T11:40:03;7.75;;;2.80;;
39098;SDS011;24844;52.380;7.018;2023-04-30T11:42:35;6.35;;;2.20;;
39098;SDS011;24844;52.380;7.018;2023-04-30T11:45:03;9.93;;;2.95;;
39098;SDS011;24844;52.380;7.018;2023-04-30T11:50:10;9.63;;;2.63;;
39098;SDS011;24844;52.380;7.018;2023-04-30T11:52:37;6.05;;;2.00;;
39098;SDS011;24844;52.380;7.018;2023-04-30T11:55:04;4.70;;;1.80;;
39098;SDS011;24844;52.380;7.018;2023-04-30T11:57:41;8.32;;;2.40;;
39098;SDS011;24844;52.380;7.018;2023-04-30T12:00:12;7.95;;;2.33;;
39098;SDS011;24844;52.380;7.018;2023-04-30T12:02:43;7.63;;;2.08;;
39098;SDS011;24844;52.380;7.018;2023-04-30T12:05:14;4.25;;;2.22;;
39098;SDS011;24844;52.380;7.018;2023-04-30T12:07:59;5.25;;;2.00;;
39098;SDS011;24844;52.380;7.018;2023-04-30T12:10:30;7.85;;;2.30;;
39098;SDS011;24844;52.380;7.018;2023-04-30T12:12:56;3.38;;;1.80;;
39098;SDS011;24844;52.380;7.018;2023-04-30T12:15:23;5.72;;;2.10;;
39098;SDS011;24844;52.380;7.018;2023-04-30T12:17:54;4.90;;;2.35;;
39098;SDS011;24844;52.380;7.018;2023-04-30T12:20:21;11.38;;;2.13;;
39098;SDS011;24844;52.380;7.018;2023-04-30T12:22:48;7.00;;;1.90;;
39098;SDS011;24844;52.380;7.018;2023-04-30T12:25:15;7.85;;;2.28;;
39098;SDS011;24844;52.380;7.018;2023-04-30T12:27:49;7.05;;;2.03;;
39098;SDS011;24844;52.380;7.018;2023-04-30T12:30:20;8.15;;;2.63;;
39098;SDS011;24844;52.380;7.018;2023-04-30T12:32:48;8.27;;;2.30;;
39098;SDS011;24844;52.380;7.018;2023-04-30T12:35:15;6.72;;;2.08;;
39098;SDS011;24844;52.380;7.018;2023-04-30T12:37:45;5.30;;;1.90;;
39098;SDS011;24844;52.380;7.018;2023-04-30T12:40:14;5.03;;;1.70;;
39098;SDS011;24844;52.380;7.018;2023-04-30T12:42:40;4.47;;;1.77;;
39098;SDS011;24844;52.380;7.018;2023-04-30T12:45:07;4.07;;;1.85;;
39098;SDS011;24844;52.380;7.018;2023-04-30T12:47:40;5.85;;;1.98;;
39098;SDS011;24844;52.380;7.018;2023-04-30T12:50:09;6.18;;;1.98;;
39098;SDS011;24844;52.380;7.018;2023-04-30T12:52:37;8.40;;;1.90;;
39098;SDS011;24844;52.380;7.018;2023-04-30T12:55:14;5.83;;;2.10;;
39098;SDS011;24844;52.380;7.018;2023-04-30T12:57:40;2.92;;;1.25;;
39098;SDS011;24844;52.380;7.018;2023-04-30T13:00:06;7.85;;;2.00;;
39098;SDS011;24844;52.380;7.018;2023-04-30T13:02:32;6.22;;;2.25;;
39098;SDS011;24844;52.380;7.018;2023-04-30T13:04:58;5.97;;;1.83;;
39098;SDS011;24844;52.380;7.018;2023-04-30T13:07:23;5.90;;;2.30;;
39098;SDS011;24844;52.380;7.018;2023-04-30T13:09:50;6.93;;;2.10;;
39098;SDS011;24844;52.380;7.018;2023-04-30T13:12:15;4.68;;;1.75;;
39098;SDS011;24844;52.380;7.018;2023-04-30T13:14:41;4.78;;;1.88;;
39098;SDS011;24844;52.380;7.018;2023-04-30T13:17:07;5.20;;;1.90;;
39098;SDS011;24844;52.380;7.018;2023-04-30T13:19:33;8.05;;;2.05;;
39098;SDS011;24844;52.380;7.018;2023-04-30T13:21:59;6.22;;;2.25;;
39098;SDS011;24844;52.380;7.018;2023-04-30T13:24:25;6.03;;;1.65;;
39098;SDS011;24844;52.380;7.018;2023-04-30T13:26:51;8.23;;;1.80;;
39098;SDS011;24844;52.380;7.018;2023-04-30T13:29:17;5.75;;;2.05;;
39098;SDS011;24844;52.380;7.018;2023-04-30T13:31:45;7.10;;;2.30;;
39098;SDS011;24844;52.380;7.018;2023-04-30T13:34:12;8.47;;;1.83;;
39098;SDS011;24844;52.380;7.018;2023-04-30T13:39:06;5.05;;;1.88;;
39098;SDS011;24844;52.380;7.018;2023-04-30T13:41:32;5.65;;;1.70;;
39098;SDS011;24844;52.380;7.018;2023-04-30T13:43:57;4.10;;;1.77;;
39098;SDS011;24844;52.380;7.018;2023-04-30T13:46:24;6.88;;;1.85;;
39098;SDS011;24844;52.380;7.018;2023-04-30T13:48:49;3.45;;;1.60;;
39098;SDS011;24844;52.380;7.018;2023-04-30T13:51:17;6.47;;;1.70;;
39098;SDS011;24844;52.380;7.018;2023-04-30T13:53:43;4.53;;;1.77;;
39098;SDS011;24844;52.380;7.018;2023-04-30T13:56:08;6.05;;;1.95;;
39098;SDS011;24844;52.380;7.018;2023-04-30T13:58:34;5.13;;;1.67;;
39098;SDS011;24844;52.380;7.018;2023-04-30T14:01:00;6.60;;;2.03;;
39098;SDS011;24844;52.380;7.018;2023-04-30T14:03:26;3.63;;;1.65;;
39098;SDS011;24844;52.380;7.018;2023-04-30T14:05:52;6.28;;;2.05;;
39098;SDS011;24844;52.380;7.018;2023-04-30T14:08:18;3.97;;;1.58;;
39098;SDS011;24844;52.380;7.018;2023-04-30T14:10:44;5.03;;;1.95;;
39098;SDS011;24844;52.380;7.018;2023-04-30T14:13:09;4.95;;;1.70;;
39098;SDS011;24844;52.380;7.018;2023-04-30T14:15:35;4.35;;;1.65;;
39098;SDS011;24844;52.380;7.018;2023-04-30T14:18:02;3.10;;;1.40;;
39098;SDS011;24844;52.380;7.018;2023-04-30T14:20:28;3.42;;;1.38;;
39098;SDS011;24844;52.380;7.018;2023-04-30T14:22:53;6.80;;;1.60;;
39098;SDS011;24844;52.380;7.018;2023-04-30T14:25:19;4.13;;;1.80;;
39098;SDS011;24844;52.380;7.018;2023-04-30T14:27:44;7.60;;;2.10;;
39098;SDS011;24844;52.380;7.018;2023-04-30T14:30:11;3.53;;;1.73;;
39098;SDS011;24844;52.380;7.018;2023-04-30T14:32:37;5.53;;;1.60;;
39098;SDS011;24844;52.380;7.018;2023-04-30T14:35:02;6.10;;;1.80;;
39098;SDS011;24844;52.380;7.018;2023-04-30T14:37:29;3.85;;;1.70;;
39098;SDS011;24844;52.380;7.018;2023-04-30T14:39:54;6.38;;;2.10;;
39098;SDS011;24844;52.380;7.018;2023-04-30T14:42:20;3.78;;;1.40;;
39098;SDS011;24844;52.380;7.018;2023-04-30T14:44:46;6.15;;;2.70;;
39098;SDS011;24844;52.380;7.018;2023-04-30T14:47:11;5.18;;;1.90;;
39098;SDS011;24844;52.380;7.018;2023-04-30T14:49:37;7.70;;;2.05;;
39098;SDS011;24844;52.380;7.018;2023-04-30T14:52:03;4.78;;;2.08;;
39098;SDS011;24844;52.380;7.018;2023-04-30T14:54:28;8.57;;;2.33;;
39098;SDS011;24844;52.380;7.018;2023-04-30T14:56:54;6.80;;;2.20;;
39098;SDS011;24844;52.380;7.018;2023-04-30T14:59:20;4.93;;;1.63;;
39098;SDS011;24844;52.380;7.018;2023-04-30T15:01:45;5.82;;;2.63;;
39098;SDS011;24844;52.380;7.018;2023-04-30T15:04:11;4.97;;;2.30;;
39098;SDS011;24844;52.380;7.018;2023-04-30T15:06:36;4.15;;;1.90;;
39098;SDS011;24844;52.380;7.018;2023-04-30T15:09:02;3.28;;;1.75;;